sensor_id;sensor_type;location;lat;lon;timestamp;P1;durP1;ratioP1;P2;durP2;ratioP2
8139;SDS011;4111;50.972;7.072;2022-11-21T00:00:47;14.07;;;3.83;;
8139;SDS011;4111;50.972;7.072;2022-11-21T00:03:16;12.63;;;3.80;;
8139;SDS011;4111;50.972;7.072;2022-11-21T00:05:46;13.13;;;4.27;;
8139;SDS011;4111;50.972;7.072;2022-11-21T00:08:14;17.53;;;4.17;;
8139;SDS011;4111;50.972;7.072;2022-11-21T00:10:45;17.90;;;4.20;;
8139;SDS011;4111;50.972;7.072;2022-11-21T00:13:14;10.63;;;3.37;;
8139;SDS011;4111;50.972;7.072;2022-11-21T00:15:45;11.57;;;3.33;;
8139;SDS011;4111;50.972;7.072;2022-11-21T00:18:12;11.70;;;3.60;;
8139;SDS011;4111;50.972;7.072;2022-11-21T00:20:39;13.00;;;3.80;;
8139;SDS011;4111;50.972;7.072;2022-11-21T00:23:06;14.30;;;4.00;;
8139;SDS011;4111;50.972;7.072;2022-11-21T00:25:34;12.67;;;3.57;;
8139;SDS011;4111;50.972;7.072;2022-11-21T00:28:01;15.23;;;3.73;;
8139;SDS011;4111;50.972;7.072;2022-11-21T00:30:27;18.03;;;4.10;;
8139;SDS011;4111;50.972;7.072;2022-11-21T00:32:54;17.00;;;4.67;;
8139;SDS011;4111;50.972;7.072;2022-11-21T00:35:20;12.97;;;3.80;;
8139;SDS011;4111;50.972;7.072;2022-11-21T00:37:47;17.17;;;3.87;;
8139;SDS011;4111;50.972;7.072;2022-11-21T00:40:13;15.37;;;4.07;;
8139;SDS011;4111;50.972;7.072;2022-11-21T00:42:40;14.80;;;4.00;;
8139;SDS011;4111;50.972;7.072;2022-11-21T00:45:07;16.03;;;3.87;;
8139;SDS011;4111;50.972;7.072;2022-11-21T00:47:34;15.73;;;4.40;;
8139;SDS011;4111;50.972;7.072;2022-11-21T00:50:00;15.60;;;3.97;;
8139;SDS011;4111;50.972;7.072;2022-11-21T00:52:26;12.00;;;3.90;;
8139;SDS011;4111;50.972;7.072;2022-11-21T00:54:53;17.40;;;4.10;;
8139;SDS011;4111;50.972;7.072;2022-11-21T00:57:19;15.67;;;4.13;;
8139;SDS011;4111;50.972;7.072;2022-11-21T00:59:45;20.10;;;4.20;;
8139;SDS011;4111;50.972;7.072;2022-11-21T01:02:12;10.83;;;3.50;;
8139;SDS011;4111;50.972;7.072;2022-11-21T01:04:39;10.53;;;3.77;;
8139;SDS011;4111;50.972;7.072;2022-11-21T01:07:05;14.57;;;3.80;;
8139;SDS011;4111;50.972;7.072;2022-11-21T01:09:32;20.60;;;4.70;;
8139;SDS011;4111;50.972;7.072;2022-11-21T01:11:58;17.20;;;3.80;;
8139;SDS011;4111;50.972;7.072;2022-11-21T01:14:24;11.97;;;3.70;;
8139;SDS011;4111;50.972;7.072;2022-11-21T01:16:52;15.47;;;4.07;;
8139;SDS011;4111;50.972;7.072;2022-11-21T01:19:18;17.03;;;4.40;;
8139;SDS011;4111;50.972;7.072;2022-11-21T01:21:44;14.57;;;4.10;;
8139;SDS011;4111;50.972;7.072;2022-11-21T01:24:11;15.93;;;3.70;;
8139;SDS011;4111;50.972;7.072;2022-11-21T01:26:38;15.10;;;4.27;;
8139;SDS011;4111;50.972;7.072;2022-11-21T01:29:04;18.37;;;4.50;;
8139;SDS011;4111;50.972;7.072;2022-11-21T01:31:32;10.43;;;3.97;;
8139;SDS011;4111;50.972;7.072;2022-11-21T01:33:58;11.73;;;4.40;;
8139;SDS011;4111;50.972;7.072;2022-11-21T01:36:32;16.23;;;4.53;;
8139;SDS011;4111;50.972;7.072;2022-11-21T01:39:00;16.73;;;4.57;;
8139;SDS011;4111;50.972;7.072;2022-11-21T01:41:30;19.77;;;4.80;;
8139;SDS011;4111;50.972;7.072;2022-11-21T01:44:02;11.90;;;3.97;;
8139;SDS011;4111;50.972;7.072;2022-11-21T01:46:35;17.90;;;5.17;;
8139;SDS011;4111;50.972;7.072;2022-11-21T01:49:03;13.10;;;4.63;;
8139;SDS011;4111;50.972;7.072;2022-11-21T01:59:20;12.10;;;3.90;;
8139;SDS011;4111;50.972;7.072;2022-11-21T02:01:52;21.70;;;4.83;;
8139;SDS011;4111;50.972;7.072;2022-11-21T02:04:21;12.50;;;4.47;;
8139;SDS011;4111;50.972;7.072;2022-11-21T02:06:50;15.53;;;4.33;;
8139;SDS011;4111;50.972;7.072;2022-11-21T02:09:17;15.87;;;4.37;;
8139;SDS011;4111;50.972;7.072;2022-11-21T02:11:54;14.47;;;5.03;;
8139;SDS011;4111;50.972;7.072;2022-11-21T02:14:24;19.20;;;4.47;;
8139;SDS011;4111;50.972;7.072;2022-11-21T02:16:53;14.73;;;4.87;;
8139;SDS011;4111;50.972;7.072;2022-11-21T02:19:32;17.27;;;5.40;;
8139;SDS011;4111;50.972;7.072;2022-11-21T02:22:06;18.13;;;5.03;;
8139;SDS011;4111;50.972;7.072;2022-11-21T02:27:12;15.40;;;4.30;;
8139;SDS011;4111;50.972;7.072;2022-11-21T02:29:39;13.97;;;4.40;;
8139;SDS011;4111;50.972;7.072;2022-11-21T02:32:05;14.20;;;4.60;;
8139;SDS011;4111;50.972;7.072;2022-11-21T02:34:32;17.53;;;4.63;;
8139;SDS011;4111;50.972;7.072;2022-11-21T02:36:58;13.03;;;4.37;;
8139;SDS011;4111;50.972;7.072;2022-11-21T02:39:31;13.60;;;4.60;;
8139;SDS011;4111;50.972;7.072;2022-11-21T02:44:39;10.73;;;4.60;;
8139;SDS011;4111;50.972;7.072;2022-11-21T02:47:13;14.23;;;4.23;;
8139;SDS011;4111;50.972;7.072;2022-11-21T02:49:41;13.43;;;3.90;;
8139;SDS011;4111;50.972;7.072;2022-11-21T02:52:14;14.50;;;4.30;;
8139;SDS011;4111;50.972;7.072;2022-11-21T02:54:40;12.27;;;4.13;;
8139;SDS011;4111;50.972;7.072;2022-11-21T02:57:07;13.20;;;4.30;;
8139;SDS011;4111;50.972;7.072;2022-11-21T02:59:33;9.97;;;4.00;;
8139;SDS011;4111;50.972;7.072;2022-11-21T03:02:00;13.00;;;4.13;;
8139;SDS011;4111;50.972;7.072;2022-11-21T03:04:27;8.43;;;3.50;;
8139;SDS011;4111;50.972;7.072;2022-11-21T03:06:54;17.27;;;3.80;;
8139;SDS011;4111;50.972;7.072;2022-11-21T03:09:21;11.30;;;3.97;;
8139;SDS011;4111;50.972;7.072;2022-11-21T03:11:47;10.07;;;3.30;;
8139;SDS011;4111;50.972;7.072;2022-11-21T03:14:14;11.70;;;3.67;;
8139;SDS011;4111;50.972;7.072;2022-11-21T03:16:40;10.80;;;3.70;;
8139;SDS011;4111;50.972;7.072;2022-11-21T03:19:06;13.07;;;3.63;;
8139;SDS011;4111;50.972;7.072;2022-11-21T03:21:33;12.53;;;3.60;;
8139;SDS011;4111;50.972;7.072;2022-11-21T03:23:59;9.07;;;3.47;;
8139;SDS011;4111;50.972;7.072;2022-11-21T03:26:26;9.47;;;3.50;;
8139;SDS011;4111;50.972;7.072;2022-11-21T03:28:53;10.33;;;3.30;;
8139;SDS011;4111;50.972;7.072;2022-11-21T03:31:19;11.60;;;3.17;;
8139;SDS011;4111;50.972;7.072;2022-11-21T03:33:46;10.53;;;3.00;;
8139;SDS011;4111;50.972;7.072;2022-11-21T03:36:12;9.17;;;3.00;;
8139;SDS011;4111;50.972;7.072;2022-11-21T03:38:38;7.53;;;3.30;;
8139;SDS011;4111;50.972;7.072;2022-11-21T03:41:05;8.03;;;3.23;;
8139;SDS011;4111;50.972;7.072;2022-11-21T03:43:52;11.63;;;3.60;;
8139;SDS011;4111;50.972;7.072;2022-11-21T03:46:18;12.07;;;3.23;;
8139;SDS011;4111;50.972;7.072;2022-11-21T03:48:45;11.87;;;3.40;;
8139;SDS011;4111;50.972;7.072;2022-11-21T03:51:11;7.90;;;2.83;;
8139;SDS011;4111;50.972;7.072;2022-11-21T03:53:38;7.53;;;3.27;;
8139;SDS011;4111;50.972;7.072;2022-11-21T03:56:04;10.17;;;3.67;;
8139;SDS011;4111;50.972;7.072;2022-11-21T03:58:31;10.33;;;3.30;;
8139;SDS011;4111;50.972;7.072;2022-11-21T04:00:57;8.10;;;3.07;;
8139;SDS011;4111;50.972;7.072;2022-11-21T04:03:24;11.67;;;3.53;;
8139;SDS011;4111;50.972;7.072;2022-11-21T04:05:50;9.33;;;3.67;;
8139;SDS011;4111;50.972;7.072;2022-11-21T04:08:17;6.53;;;3.10;;
8139;SDS011;4111;50.972;7.072;2022-11-21T04:10:47;14.63;;;3.67;;
8139;SDS011;4111;50.972;7.072;2022-11-21T04:13:14;10.17;;;2.90;;
8139;SDS011;4111;50.972;7.072;2022-11-21T04:15:41;8.67;;;3.57;;
8139;SDS011;4111;50.972;7.072;2022-11-21T04:18:08;11.20;;;3.53;;
8139;SDS011;4111;50.972;7.072;2022-11-21T04:20:34;8.77;;;3.60;;
8139;SDS011;4111;50.972;7.072;2022-11-21T04:23:01;11.80;;;2.73;;
8139;SDS011;4111;50.972;7.072;2022-11-21T04:25:28;13.77;;;3.53;;
8139;SDS011;4111;50.972;7.072;2022-11-21T04:27:58;8.33;;;2.90;;
8139;SDS011;4111;50.972;7.072;2022-11-21T04:30:26;8.50;;;3.40;;
8139;SDS011;4111;50.972;7.072;2022-11-21T04:32:54;11.60;;;3.50;;
8139;SDS011;4111;50.972;7.072;2022-11-21T04:35:22;9.07;;;3.43;;
8139;SDS011;4111;50.972;7.072;2022-11-21T04:37:49;7.40;;;3.20;;
8139;SDS011;4111;50.972;7.072;2022-11-21T04:40:16;7.53;;;3.60;;
8139;SDS011;4111;50.972;7.072;2022-11-21T04:42:43;13.43;;;3.90;;
8139;SDS011;4111;50.972;7.072;2022-11-21T04:45:11;12.60;;;3.37;;
8139;SDS011;4111;50.972;7.072;2022-11-21T04:47:39;15.33;;;5.03;;
8139;SDS011;4111;50.972;7.072;2022-11-21T04:50:07;8.53;;;3.20;;
8139;SDS011;4111;50.972;7.072;2022-11-21T04:52:35;9.40;;;3.47;;
8139;SDS011;4111;50.972;7.072;2022-11-21T04:55:02;7.53;;;3.10;;
8139;SDS011;4111;50.972;7.072;2022-11-21T04:57:30;8.17;;;3.33;;
8139;SDS011;4111;50.972;7.072;2022-11-21T04:59:57;9.17;;;3.60;;
8139;SDS011;4111;50.972;7.072;2022-11-21T05:02:23;10.87;;;3.20;;
8139;SDS011;4111;50.972;7.072;2022-11-21T05:04:50;10.77;;;3.43;;
8139;SDS011;4111;50.972;7.072;2022-11-21T05:07:16;13.70;;;4.23;;
8139;SDS011;4111;50.972;7.072;2022-11-21T05:09:43;8.40;;;3.77;;
8139;SDS011;4111;50.972;7.072;2022-11-21T05:12:10;10.30;;;3.43;;
8139;SDS011;4111;50.972;7.072;2022-11-21T05:14:55;9.00;;;3.40;;
8139;SDS011;4111;50.972;7.072;2022-11-21T05:17:22;12.20;;;3.43;;
8139;SDS011;4111;50.972;7.072;2022-11-21T05:19:48;10.07;;;3.73;;
8139;SDS011;4111;50.972;7.072;2022-11-21T05:22:15;7.17;;;3.23;;
8139;SDS011;4111;50.972;7.072;2022-11-21T05:24:41;11.33;;;3.60;;
8139;SDS011;4111;50.972;7.072;2022-11-21T05:27:07;9.27;;;3.97;;
8139;SDS011;4111;50.972;7.072;2022-11-21T05:29:34;10.00;;;4.10;;
8139;SDS011;4111;50.972;7.072;2022-11-21T05:32:01;11.17;;;3.93;;
8139;SDS011;4111;50.972;7.072;2022-11-21T05:34:27;7.70;;;3.57;;
8139;SDS011;4111;50.972;7.072;2022-11-21T05:36:54;10.23;;;4.20;;
8139;SDS011;4111;50.972;7.072;2022-11-21T05:39:22;8.80;;;3.47;;
8139;SDS011;4111;50.972;7.072;2022-11-21T05:41:49;8.43;;;4.27;;
8139;SDS011;4111;50.972;7.072;2022-11-21T05:44:16;10.03;;;3.90;;
8139;SDS011;4111;50.972;7.072;2022-11-21T05:46:42;10.40;;;4.03;;
8139;SDS011;4111;50.972;7.072;2022-11-21T05:49:10;10.23;;;5.10;;
8139;SDS011;4111;50.972;7.072;2022-11-21T05:51:37;7.17;;;4.43;;
8139;SDS011;4111;50.972;7.072;2022-11-21T05:54:03;15.23;;;5.70;;
8139;SDS011;4111;50.972;7.072;2022-11-21T05:56:30;8.67;;;4.77;;
8139;SDS011;4111;50.972;7.072;2022-11-21T05:58:57;10.53;;;5.53;;
8139;SDS011;4111;50.972;7.072;2022-11-21T06:01:24;11.83;;;6.17;;
8139;SDS011;4111;50.972;7.072;2022-11-21T06:04:09;10.07;;;5.37;;
8139;SDS011;4111;50.972;7.072;2022-11-21T06:06:36;8.33;;;5.07;;
8139;SDS011;4111;50.972;7.072;2022-11-21T06:09:02;10.20;;;5.73;;
8139;SDS011;4111;50.972;7.072;2022-11-21T06:11:29;9.93;;;6.37;;
8139;SDS011;4111;50.972;7.072;2022-11-21T06:13:56;11.00;;;6.60;;
8139;SDS011;4111;50.972;7.072;2022-11-21T06:16:22;12.77;;;5.70;;
8139;SDS011;4111;50.972;7.072;2022-11-21T06:18:50;13.43;;;6.07;;
8139;SDS011;4111;50.972;7.072;2022-11-21T06:21:24;12.53;;;6.07;;
8139;SDS011;4111;50.972;7.072;2022-11-21T06:23:54;12.10;;;6.17;;
8139;SDS011;4111;50.972;7.072;2022-11-21T06:26:23;12.40;;;6.07;;
8139;SDS011;4111;50.972;7.072;2022-11-21T06:28:50;12.20;;;6.83;;
8139;SDS011;4111;50.972;7.072;2022-11-21T06:31:21;14.43;;;5.97;;
8139;SDS011;4111;50.972;7.072;2022-11-21T06:33:53;14.03;;;7.73;;
8139;SDS011;4111;50.972;7.072;2022-11-21T06:36:20;10.60;;;5.80;;
8139;SDS011;4111;50.972;7.072;2022-11-21T06:38:47;7.37;;;6.20;;
8139;SDS011;4111;50.972;7.072;2022-11-21T06:41:14;11.00;;;6.10;;
8139;SDS011;4111;50.972;7.072;2022-11-21T06:43:45;10.63;;;5.97;;
8139;SDS011;4111;50.972;7.072;2022-11-21T06:46:12;12.83;;;6.53;;
8139;SDS011;4111;50.972;7.072;2022-11-21T06:48:40;12.90;;;6.83;;
8139;SDS011;4111;50.972;7.072;2022-11-21T06:51:17;14.43;;;6.93;;
8139;SDS011;4111;50.972;7.072;2022-11-21T06:53:45;13.93;;;7.47;;
8139;SDS011;4111;50.972;7.072;2022-11-21T06:56:13;12.97;;;7.67;;
8139;SDS011;4111;50.972;7.072;2022-11-21T06:58:40;13.63;;;7.60;;
8139;SDS011;4111;50.972;7.072;2022-11-21T07:01:08;14.67;;;7.63;;
8139;SDS011;4111;50.972;7.072;2022-11-21T07:03:35;14.70;;;7.30;;
8139;SDS011;4111;50.972;7.072;2022-11-21T07:06:02;13.70;;;7.67;;
8139;SDS011;4111;50.972;7.072;2022-11-21T07:08:29;13.70;;;7.97;;
8139;SDS011;4111;50.972;7.072;2022-11-21T07:11:00;15.53;;;8.20;;
8139;SDS011;4111;50.972;7.072;2022-11-21T07:13:52;13.93;;;8.10;;
8139;SDS011;4111;50.972;7.072;2022-11-21T07:16:18;12.87;;;8.20;;
8139;SDS011;4111;50.972;7.072;2022-11-21T07:18:45;18.77;;;8.10;;
8139;SDS011;4111;50.972;7.072;2022-11-21T07:21:11;13.03;;;7.97;;
8139;SDS011;4111;50.972;7.072;2022-11-21T07:23:38;16.77;;;7.77;;
8139;SDS011;4111;50.972;7.072;2022-11-21T07:26:05;11.53;;;7.43;;
8139;SDS011;4111;50.972;7.072;2022-11-21T07:28:33;10.33;;;7.40;;
8139;SDS011;4111;50.972;7.072;2022-11-21T07:31:00;11.67;;;6.30;;
8139;SDS011;4111;50.972;7.072;2022-11-21T07:33:35;11.13;;;6.70;;
8139;SDS011;4111;50.972;7.072;2022-11-21T07:36:02;8.27;;;5.87;;
8139;SDS011;4111;50.972;7.072;2022-11-21T07:38:29;15.33;;;6.17;;
8139;SDS011;4111;50.972;7.072;2022-11-21T07:40:55;9.20;;;5.80;;
8139;SDS011;4111;50.972;7.072;2022-11-21T07:43:22;12.80;;;5.90;;
8139;SDS011;4111;50.972;7.072;2022-11-21T07:45:48;11.67;;;6.07;;
8139;SDS011;4111;50.972;7.072;2022-11-21T07:48:15;9.70;;;5.00;;
8139;SDS011;4111;50.972;7.072;2022-11-21T07:50:41;7.47;;;4.60;;
8139;SDS011;4111;50.972;7.072;2022-11-21T07:53:08;7.90;;;4.80;;
8139;SDS011;4111;50.972;7.072;2022-11-21T07:55:36;10.53;;;4.73;;
8139;SDS011;4111;50.972;7.072;2022-11-21T07:58:07;8.03;;;4.90;;
8139;SDS011;4111;50.972;7.072;2022-11-21T08:00:38;7.83;;;4.97;;
8139;SDS011;4111;50.972;7.072;2022-11-21T08:03:08;10.13;;;4.83;;
8139;SDS011;4111;50.972;7.072;2022-11-21T08:05:39;6.77;;;4.50;;
8139;SDS011;4111;50.972;7.072;2022-11-21T08:08:07;10.07;;;4.67;;
8139;SDS011;4111;50.972;7.072;2022-11-21T08:10:36;9.83;;;5.13;;
8139;SDS011;4111;50.972;7.072;2022-11-21T08:13:04;7.77;;;4.77;;
8139;SDS011;4111;50.972;7.072;2022-11-21T08:15:31;6.80;;;4.67;;
8139;SDS011;4111;50.972;7.072;2022-11-21T08:17:57;9.47;;;5.23;;
8139;SDS011;4111;50.972;7.072;2022-11-21T08:20:24;6.83;;;5.00;;
8139;SDS011;4111;50.972;7.072;2022-11-21T08:22:51;9.67;;;4.87;;
8139;SDS011;4111;50.972;7.072;2022-11-21T08:25:17;6.47;;;4.47;;
8139;SDS011;4111;50.972;7.072;2022-11-21T08:27:44;12.43;;;5.00;;
8139;SDS011;4111;50.972;7.072;2022-11-21T08:30:10;6.00;;;5.23;;
8139;SDS011;4111;50.972;7.072;2022-11-21T08:32:37;7.53;;;4.30;;
8139;SDS011;4111;50.972;7.072;2022-11-21T08:35:04;7.73;;;4.83;;
8139;SDS011;4111;50.972;7.072;2022-11-21T08:37:31;7.27;;;4.80;;
8139;SDS011;4111;50.972;7.072;2022-11-21T08:39:57;7.30;;;4.77;;
8139;SDS011;4111;50.972;7.072;2022-11-21T08:42:24;8.90;;;4.90;;
8139;SDS011;4111;50.972;7.072;2022-11-21T08:44:51;9.43;;;4.80;;
8139;SDS011;4111;50.972;7.072;2022-11-21T08:47:17;7.13;;;4.50;;
8139;SDS011;4111;50.972;7.072;2022-11-21T08:49:46;7.73;;;5.20;;
8139;SDS011;4111;50.972;7.072;2022-11-21T08:52:13;6.00;;;4.70;;
8139;SDS011;4111;50.972;7.072;2022-11-21T08:54:45;9.27;;;5.10;;
8139;SDS011;4111;50.972;7.072;2022-11-21T08:57:12;9.93;;;5.20;;
8139;SDS011;4111;50.972;7.072;2022-11-21T08:59:38;9.30;;;5.47;;
8139;SDS011;4111;50.972;7.072;2022-11-21T09:02:05;12.50;;;5.50;;
8139;SDS011;4111;50.972;7.072;2022-11-21T09:04:32;7.67;;;5.10;;
8139;SDS011;4111;50.972;7.072;2022-11-21T09:06:58;10.40;;;5.20;;
8139;SDS011;4111;50.972;7.072;2022-11-21T09:09:25;7.47;;;5.53;;
8139;SDS011;4111;50.972;7.072;2022-11-21T09:11:52;8.03;;;5.47;;
8139;SDS011;4111;50.972;7.072;2022-11-21T09:14:18;10.80;;;6.47;;
8139;SDS011;4111;50.972;7.072;2022-11-21T09:17:03;9.33;;;6.50;;
8139;SDS011;4111;50.972;7.072;2022-11-21T09:19:48;7.27;;;6.13;;
8139;SDS011;4111;50.972;7.072;2022-11-21T09:22:15;12.90;;;7.90;;
8139;SDS011;4111;50.972;7.072;2022-11-21T09:24:42;8.50;;;6.63;;
8139;SDS011;4111;50.972;7.072;2022-11-21T09:27:08;9.70;;;7.03;;
8139;SDS011;4111;50.972;7.072;2022-11-21T09:29:34;9.67;;;6.53;;
8139;SDS011;4111;50.972;7.072;2022-11-21T09:32:01;9.87;;;7.87;;
8139;SDS011;4111;50.972;7.072;2022-11-21T09:34:27;11.97;;;8.63;;
8139;SDS011;4111;50.972;7.072;2022-11-21T09:36:54;11.73;;;8.40;;
8139;SDS011;4111;50.972;7.072;2022-11-21T09:39:21;10.60;;;7.73;;
8139;SDS011;4111;50.972;7.072;2022-11-21T09:47:20;9.37;;;6.70;;
8139;SDS011;4111;50.972;7.072;2022-11-21T09:49:54;10.87;;;7.00;;
8139;SDS011;4111;50.972;7.072;2022-11-21T09:52:25;7.93;;;5.80;;
8139;SDS011;4111;50.972;7.072;2022-11-21T09:54:58;14.40;;;5.97;;
8139;SDS011;4111;50.972;7.072;2022-11-21T09:57:29;6.43;;;5.23;;
8139;SDS011;4111;50.972;7.072;2022-11-21T10:00:01;10.63;;;6.20;;
8139;SDS011;4111;50.972;7.072;2022-11-21T10:02:35;9.47;;;7.33;;
8139;SDS011;4111;50.972;7.072;2022-11-21T10:05:01;10.63;;;6.97;;
8139;SDS011;4111;50.972;7.072;2022-11-21T10:07:29;10.80;;;7.50;;
8139;SDS011;4111;50.972;7.072;2022-11-21T10:12:53;9.33;;;6.63;;
8139;SDS011;4111;50.972;7.072;2022-11-21T10:20:49;9.47;;;5.83;;
8139;SDS011;4111;50.972;7.072;2022-11-21T10:26:45;5.77;;;4.13;;
8139;SDS011;4111;50.972;7.072;2022-11-21T10:32:06;4.70;;;3.93;;
8139;SDS011;4111;50.972;7.072;2022-11-21T10:34:42;7.07;;;3.70;;
8139;SDS011;4111;50.972;7.072;2022-11-21T10:37:15;7.60;;;4.30;;
8139;SDS011;4111;50.972;7.072;2022-11-21T10:39:52;5.87;;;4.33;;
8139;SDS011;4111;50.972;7.072;2022-11-21T10:42:39;5.50;;;3.93;;
8139;SDS011;4111;50.972;7.072;2022-11-21T10:45:13;6.60;;;4.30;;
8139;SDS011;4111;50.972;7.072;2022-11-21T10:47:45;6.23;;;4.07;;
8139;SDS011;4111;50.972;7.072;2022-11-21T10:50:17;6.23;;;4.13;;
8139;SDS011;4111;50.972;7.072;2022-11-21T10:55:57;4.67;;;3.60;;
8139;SDS011;4111;50.972;7.072;2022-11-21T10:58:32;6.27;;;3.57;;
8139;SDS011;4111;50.972;7.072;2022-11-21T11:01:01;4.60;;;3.00;;
8139;SDS011;4111;50.972;7.072;2022-11-21T11:03:27;3.63;;;2.80;;
8139;SDS011;4111;50.972;7.072;2022-11-21T11:05:56;4.77;;;3.43;;
8139;SDS011;4111;50.972;7.072;2022-11-21T11:08:25;5.40;;;2.90;;
8139;SDS011;4111;50.972;7.072;2022-11-21T11:11:06;6.07;;;2.73;;
8139;SDS011;4111;50.972;7.072;2022-11-21T11:13:33;7.80;;;2.63;;
8139;SDS011;4111;50.972;7.072;2022-11-21T11:16:22;3.83;;;2.70;;
8139;SDS011;4111;50.972;7.072;2022-11-21T11:18:54;3.33;;;2.23;;
8139;SDS011;4111;50.972;7.072;2022-11-21T11:21:27;4.47;;;2.37;;
8139;SDS011;4111;50.972;7.072;2022-11-21T11:24:06;5.57;;;2.10;;
8139;SDS011;4111;50.972;7.072;2022-11-21T11:32:18;6.70;;;2.40;;
8139;SDS011;4111;50.972;7.072;2022-11-21T11:34:57;2.30;;;2.10;;
8139;SDS011;4111;50.972;7.072;2022-11-21T11:43:04;4.83;;;1.90;;
8139;SDS011;4111;50.972;7.072;2022-11-21T11:46:08;4.87;;;2.20;;
8139;SDS011;4111;50.972;7.072;2022-11-21T11:49:29;4.60;;;1.87;;
8139;SDS011;4111;50.972;7.072;2022-11-21T11:52:19;4.67;;;3.03;;
8139;SDS011;4111;50.972;7.072;2022-11-21T11:54:51;2.63;;;2.17;;
8139;SDS011;4111;50.972;7.072;2022-11-21T11:57:24;5.53;;;2.20;;
8139;SDS011;4111;50.972;7.072;2022-11-21T12:00:19;3.60;;;1.73;;
8139;SDS011;4111;50.972;7.072;2022-11-21T12:02:52;2.27;;;1.50;;
8139;SDS011;4111;50.972;7.072;2022-11-21T12:05:25;2.70;;;1.53;;
8139;SDS011;4111;50.972;7.072;2022-11-21T12:10:58;1.30;;;1.20;;
8139;SDS011;4111;50.972;7.072;2022-11-21T12:13:50;2.30;;;1.33;;
8139;SDS011;4111;50.972;7.072;2022-11-21T12:16:20;4.63;;;1.50;;
8139;SDS011;4111;50.972;7.072;2022-11-21T12:18:51;2.45;;;1.42;;
8139;SDS011;4111;50.972;7.072;2022-11-21T12:21:21;2.77;;;1.17;;
8139;SDS011;4111;50.972;7.072;2022-11-21T12:29:35;1.10;;;1.00;;
8139;SDS011;4111;50.972;7.072;2022-11-21T12:46:19;2.40;;;1.40;;
8139;SDS011;4111;50.972;7.072;2022-11-21T12:49:42;2.80;;;2.07;;
8139;SDS011;4111;50.972;7.072;2022-11-21T12:52:24;3.83;;;2.10;;
8139;SDS011;4111;50.972;7.072;2022-11-21T12:55:20;4.20;;;3.20;;
8139;SDS011;4111;50.972;7.072;2022-11-21T13:00:26;1.20;;;1.10;;
8139;SDS011;4111;50.972;7.072;2022-11-21T13:06:13;1.40;;;1.30;;
8139;SDS011;4111;50.972;7.072;2022-11-21T13:08:43;1.73;;;1.23;;
8139;SDS011;4111;50.972;7.072;2022-11-21T13:11:16;1.63;;;1.30;;
8139;SDS011;4111;50.972;7.072;2022-11-21T13:14:14;1.77;;;1.13;;
8139;SDS011;4111;50.972;7.072;2022-11-21T13:16:47;1.80;;;1.40;;
8139;SDS011;4111;50.972;7.072;2022-11-21T13:19:22;3.30;;;1.67;;
8139;SDS011;4111;50.972;7.072;2022-11-21T13:22:01;4.43;;;1.60;;
8139;SDS011;4111;50.972;7.072;2022-11-21T13:32:41;1.80;;;1.50;;
8139;SDS011;4111;50.972;7.072;2022-11-21T13:45:55;9.30;;;1.90;;
8139;SDS011;4111;50.972;7.072;2022-11-21T13:59:28;5.27;;;2.53;;
8139;SDS011;4111;50.972;7.072;2022-11-21T14:05:01;7.90;;;3.10;;
8139;SDS011;4111;50.972;7.072;2022-11-21T14:07:38;12.73;;;6.87;;
8139;SDS011;4111;50.972;7.072;2022-11-21T14:10:17;12.77;;;6.03;;
8139;SDS011;4111;50.972;7.072;2022-11-21T14:12:46;6.73;;;3.20;;
8139;SDS011;4111;50.972;7.072;2022-11-21T14:18:23;7.07;;;2.90;;
8139;SDS011;4111;50.972;7.072;2022-11-21T14:20:51;6.60;;;2.80;;
8139;SDS011;4111;50.972;7.072;2022-11-21T14:23:22;6.77;;;2.90;;
8139;SDS011;4111;50.972;7.072;2022-11-21T14:26:04;5.60;;;2.80;;
8139;SDS011;4111;50.972;7.072;2022-11-21T14:28:37;5.73;;;3.10;;
8139;SDS011;4111;50.972;7.072;2022-11-21T14:31:05;4.27;;;2.30;;
8139;SDS011;4111;50.972;7.072;2022-11-21T14:33:39;3.60;;;1.50;;
8139;SDS011;4111;50.972;7.072;2022-11-21T14:36:17;3.33;;;1.50;;
8139;SDS011;4111;50.972;7.072;2022-11-21T14:38:57;2.03;;;1.20;;
8139;SDS011;4111;50.972;7.072;2022-11-21T14:41:51;2.43;;;1.33;;
8139;SDS011;4111;50.972;7.072;2022-11-21T14:44:21;4.57;;;1.20;;
8139;SDS011;4111;50.972;7.072;2022-11-21T14:46:49;3.80;;;1.40;;
8139;SDS011;4111;50.972;7.072;2022-11-21T14:49:17;4.13;;;1.47;;
8139;SDS011;4111;50.972;7.072;2022-11-21T14:51:56;3.23;;;1.10;;
8139;SDS011;4111;50.972;7.072;2022-11-21T14:54:59;4.27;;;1.40;;
8139;SDS011;4111;50.972;7.072;2022-11-21T14:57:47;2.87;;;1.40;;
8139;SDS011;4111;50.972;7.072;2022-11-21T15:00:14;3.60;;;1.30;;
8139;SDS011;4111;50.972;7.072;2022-11-21T15:03:03;3.90;;;1.17;;
8139;SDS011;4111;50.972;7.072;2022-11-21T15:05:31;4.47;;;1.70;;
8139;SDS011;4111;50.972;7.072;2022-11-21T15:08:22;5.63;;;1.33;;
8139;SDS011;4111;50.972;7.072;2022-11-21T15:11:09;1.20;;;1.10;;
8139;SDS011;4111;50.972;7.072;2022-11-21T15:13:37;2.13;;;1.13;;
8139;SDS011;4111;50.972;7.072;2022-11-21T15:16:24;2.93;;;1.87;;
8139;SDS011;4111;50.972;7.072;2022-11-21T15:18:52;12.30;;;4.77;;
8139;SDS011;4111;50.972;7.072;2022-11-21T15:21:19;4.93;;;2.17;;
8139;SDS011;4111;50.972;7.072;2022-11-21T15:23:45;8.93;;;2.93;;
8139;SDS011;4111;50.972;7.072;2022-11-21T15:28:54;7.47;;;3.73;;
8139;SDS011;4111;50.972;7.072;2022-11-21T15:31:22;7.67;;;4.27;;
8139;SDS011;4111;50.972;7.072;2022-11-21T15:34:02;2.30;;;1.97;;
8139;SDS011;4111;50.972;7.072;2022-11-21T15:37:11;1.50;;;1.33;;
8139;SDS011;4111;50.972;7.072;2022-11-21T15:39:43;1.37;;;1.27;;
8139;SDS011;4111;50.972;7.072;2022-11-21T15:47:44;5.73;;;1.90;;
8139;SDS011;4111;50.972;7.072;2022-11-21T15:50:12;4.53;;;1.60;;
8139;SDS011;4111;50.972;7.072;2022-11-21T15:52:43;4.23;;;1.40;;
8139;SDS011;4111;50.972;7.072;2022-11-21T15:55:11;4.33;;;1.93;;
8139;SDS011;4111;50.972;7.072;2022-11-21T15:57:43;2.90;;;1.90;;
8139;SDS011;4111;50.972;7.072;2022-11-21T16:00:09;3.63;;;1.80;;
8139;SDS011;4111;50.972;7.072;2022-11-21T16:02:36;4.70;;;1.63;;
8139;SDS011;4111;50.972;7.072;2022-11-21T16:05:03;5.53;;;2.20;;
8139;SDS011;4111;50.972;7.072;2022-11-21T16:07:29;3.13;;;1.70;;
8139;SDS011;4111;50.972;7.072;2022-11-21T16:09:56;10.27;;;2.43;;
8139;SDS011;4111;50.972;7.072;2022-11-21T16:12:22;5.60;;;2.37;;
8139;SDS011;4111;50.972;7.072;2022-11-21T16:14:49;7.20;;;2.20;;
8139;SDS011;4111;50.972;7.072;2022-11-21T16:17:15;5.17;;;2.37;;
8139;SDS011;4111;50.972;7.072;2022-11-21T16:19:41;5.53;;;1.67;;
8139;SDS011;4111;50.972;7.072;2022-11-21T16:22:08;4.43;;;2.03;;
8139;SDS011;4111;50.972;7.072;2022-11-21T16:24:34;4.03;;;2.50;;
8139;SDS011;4111;50.972;7.072;2022-11-21T16:27:01;3.87;;;2.50;;
8139;SDS011;4111;50.972;7.072;2022-11-21T16:29:27;2.93;;;1.70;;
8139;SDS011;4111;50.972;7.072;2022-11-21T16:31:54;6.43;;;2.10;;
8139;SDS011;4111;50.972;7.072;2022-11-21T16:34:21;5.53;;;2.13;;
8139;SDS011;4111;50.972;7.072;2022-11-21T16:36:50;7.00;;;2.73;;
8139;SDS011;4111;50.972;7.072;2022-11-21T16:39:16;5.00;;;2.10;;
8139;SDS011;4111;50.972;7.072;2022-11-21T16:41:43;5.50;;;2.37;;
8139;SDS011;4111;50.972;7.072;2022-11-21T16:44:12;5.13;;;2.70;;
8139;SDS011;4111;50.972;7.072;2022-11-21T16:46:40;5.17;;;2.33;;
8139;SDS011;4111;50.972;7.072;2022-11-21T16:49:08;4.43;;;1.90;;
8139;SDS011;4111;50.972;7.072;2022-11-21T16:51:34;7.50;;;2.40;;
8139;SDS011;4111;50.972;7.072;2022-11-21T16:54:01;6.13;;;2.60;;
8139;SDS011;4111;50.972;7.072;2022-11-21T16:56:34;8.07;;;2.03;;
8139;SDS011;4111;50.972;7.072;2022-11-21T16:59:00;4.60;;;2.23;;
8139;SDS011;4111;50.972;7.072;2022-11-21T17:01:26;5.50;;;2.27;;
8139;SDS011;4111;50.972;7.072;2022-11-21T17:03:55;5.37;;;2.37;;
8139;SDS011;4111;50.972;7.072;2022-11-21T17:06:22;8.27;;;2.43;;
8139;SDS011;4111;50.972;7.072;2022-11-21T17:08:52;9.47;;;3.77;;
8139;SDS011;4111;50.972;7.072;2022-11-21T17:13:46;9.90;;;2.50;;
8139;SDS011;4111;50.972;7.072;2022-11-21T17:16:14;4.03;;;2.50;;
8139;SDS011;4111;50.972;7.072;2022-11-21T17:18:42;11.03;;;2.70;;
8139;SDS011;4111;50.972;7.072;2022-11-21T17:21:09;4.83;;;2.47;;
8139;SDS011;4111;50.972;7.072;2022-11-21T17:23:39;6.33;;;3.00;;
8139;SDS011;4111;50.972;7.072;2022-11-21T17:26:07;4.60;;;2.70;;
8139;SDS011;4111;50.972;7.072;2022-11-21T17:28:36;6.83;;;2.97;;
8139;SDS011;4111;50.972;7.072;2022-11-21T17:31:10;3.57;;;2.60;;